Amelia, Nebraska
Current Conditions -  °F | °C
As of 12:35 PM on Thursday 29 Jan 2015 (Local Time) from KONL Reporting Station
Clear Clear  
Wind Chill:   Ceiling: Unl
Heat Index:   Visibility: 10mi
Dew Point: -3°   Wind: 16mph
Humidity: 55%   Direction: 330°NNW
Pressure: 30.45"   Gusts: 25mph
Location:  42.24°N, 98.91°W
Report Text: KONL 291835Z AUTO 33014G22KT 10SM CLR 05/M03 A3045 RMK AO2 T00541031
Loading
Personal Weather Stations






























Interactive Weather Map New forecast layout! Learn more

10-Day Weather Forecast

Advertisements
Track Severe Weather on mobile